sensor_id;sensor_type;location;lat;lon;timestamp;pressure;altitude;pressure_sealevel;temperature;humidity
61018;BME280;48171;51.550;5.434;2023-04-07T00:01:50;101471.66;;;8.17;100.00
61018;BME280;48171;51.550;5.434;2023-04-07T00:04:16;101465.50;;;8.17;100.00
61018;BME280;48171;51.550;5.434;2023-04-07T00:06:41;101482.16;;;8.16;100.00
61018;BME280;48171;51.550;5.434;2023-04-07T00:09:08;101476.00;;;8.12;100.00
61018;BME280;48171;51.550;5.434;2023-04-07T00:11:33;101476.88;;;8.13;100.00
61018;BME280;48171;51.550;5.434;2023-04-07T00:13:58;101479.50;;;8.13;100.00
61018;BME280;48171;51.550;5.434;2023-04-07T00:16:24;101475.94;;;8.09;100.00
61018;BME280;48171;51.550;5.434;2023-04-07T00:18:49;101466.19;;;8.00;100.00
61018;BME280;48171;51.550;5.434;2023-04-07T00:21:14;101477.63;;;8.04;100.00
61018;BME280;48171;51.550;5.434;2023-04-07T00:23:40;101487.28;;;8.05;100.00
61018;BME280;48171;51.550;5.434;2023-04-07T00:26:06;101479.38;;;8.02;100.00
61018;BME280;48171;51.550;5.434;2023-04-07T00:28:32;101477.56;;;8.01;100.00
61018;BME280;48171;51.550;5.434;2023-04-07T00:30:57;101478.47;;;8.00;100.00
61018;BME280;48171;51.550;5.434;2023-04-07T00:33:22;101477.56;;;7.99;100.00
61018;BME280;48171;51.550;5.434;2023-04-07T00:35:47;101480.19;;;7.98;100.00
61018;BME280;48171;51.550;5.434;2023-04-07T00:38:13;101481.03;;;7.97;100.00
61018;BME280;48171;51.550;5.434;2023-04-07T00:40:38;101475.75;;;7.95;100.00
61018;BME280;48171;51.550;5.434;2023-04-07T00:43:03;101476.66;;;7.96;100.00
61018;BME280;48171;51.550;5.434;2023-04-07T00:45:29;101486.31;;;7.98;100.00
61018;BME280;48171;51.550;5.434;2023-04-07T00:47:56;101477.56;;;7.99;100.00
61018;BME280;48171;51.550;5.434;2023-04-07T00:50:21;101478.47;;;8.00;100.00
61018;BME280;48171;51.550;5.434;2023-04-07T00:52:47;101480.22;;;8.01;100.00
61018;BME280;48171;51.550;5.434;2023-04-07T00:55:12;101481.09;;;8.00;100.00
61018;BME280;48171;51.550;5.434;2023-04-07T00:57:37;101479.31;;;7.99;100.00
61018;BME280;48171;51.550;5.434;2023-04-07T01:00:03;101480.19;;;7.98;100.00
61018;BME280;48171;51.550;5.434;2023-04-07T01:02:55;101476.69;;;7.99;100.00
61018;BME280;48171;51.550;5.434;2023-04-07T01:05:32;101481.03;;;7.97;100.00
61018;BME280;48171;51.550;5.434;2023-04-07T01:08:13;101471.34;;;7.93;100.00
61018;BME280;48171;51.550;5.434;2023-04-07T01:13:42;101480.03;;;7.89;100.00
61018;BME280;48171;51.550;5.434;2023-04-07T01:16:22;101480.91;;;7.86;100.00
61018;BME280;48171;51.550;5.434;2023-04-07T01:18:50;101482.63;;;7.86;100.00
61018;BME280;48171;51.550;5.434;2023-04-07T01:21:17;101475.59;;;7.85;100.00
61018;BME280;48171;51.550;5.434;2023-04-07T01:24:00;101488.81;;;7.88;100.00
61018;BME280;48171;51.550;5.434;2023-04-07T01:26:29;101486.09;;;7.83;100.00
61018;BME280;48171;51.550;5.434;2023-04-07T01:29:06;101489.59;;;7.84;100.00
61018;BME280;48171;51.550;5.434;2023-04-07T01:31:38;101491.34;;;7.83;100.00
61018;BME280;48171;51.550;5.434;2023-04-07T01:34:05;101485.19;;;7.81;100.00
61018;BME280;48171;51.550;5.434;2023-04-07T01:36:33;101486.94;;;7.80;100.00
61018;BME280;48171;51.550;5.434;2023-04-07T01:38:59;101488.66;;;7.78;100.00
61018;BME280;48171;51.550;5.434;2023-04-07T01:41:26;101493.97;;;7.81;100.00
61018;BME280;48171;51.550;5.434;2023-04-07T01:43:52;101487.81;;;7.81;100.00
61018;BME280;48171;51.550;5.434;2023-04-07T01:46:18;101493.97;;;7.81;100.00
61018;BME280;48171;51.550;5.434;2023-04-07T01:48:44;101493.91;;;7.77;100.00
61018;BME280;48171;51.550;5.434;2023-04-07T01:51:12;101493.81;;;7.71;100.00
61018;BME280;48171;51.550;5.434;2023-04-07T01:53:41;101507.00;;;7.72;100.00
61018;BME280;48171;51.550;5.434;2023-04-07T01:56:07;101513.94;;;7.69;100.00
61018;BME280;48171;51.550;5.434;2023-04-07T01:58:32;101510.44;;;7.68;100.00
61018;BME280;48171;51.550;5.434;2023-04-07T02:00:58;101510.41;;;7.67;100.00
61018;BME280;48171;51.550;5.434;2023-04-07T02:03:29;101518.28;;;7.67;100.00
61018;BME280;48171;51.550;5.434;2023-04-07T02:06:01;101520.88;;;7.65;100.00
61018;BME280;48171;51.550;5.434;2023-04-07T02:08:29;101521.81;;;7.66;100.00
61018;BME280;48171;51.550;5.434;2023-04-07T02:10:57;101515.66;;;7.67;100.00
61018;BME280;48171;51.550;5.434;2023-04-07T02:13:23;101524.44;;;7.66;100.00
61018;BME280;48171;51.550;5.434;2023-04-07T02:15:51;101514.78;;;7.66;100.00
61018;BME280;48171;51.550;5.434;2023-04-07T02:18:19;101518.31;;;7.68;100.00
61018;BME280;48171;51.550;5.434;2023-04-07T02:20:46;101519.16;;;7.67;100.00
61018;BME280;48171;51.550;5.434;2023-04-07T02:23:12;101517.44;;;7.68;100.00
61018;BME280;48171;51.550;5.434;2023-04-07T02:25:37;101520.03;;;7.66;100.00
61018;BME280;48171;51.550;5.434;2023-04-07T02:28:04;101518.25;;;7.64;100.00
61018;BME280;48171;51.550;5.434;2023-04-07T02:30:30;101513.81;;;7.61;100.00
61018;BME280;48171;51.550;5.434;2023-04-07T02:32:55;101509.44;;;7.60;100.00
61018;BME280;48171;51.550;5.434;2023-04-07T02:35:21;101509.47;;;7.63;100.00
61018;BME280;48171;51.550;5.434;2023-04-07T02:37:47;101515.59;;;7.62;100.00
61018;BME280;48171;51.550;5.434;2023-04-07T02:40:12;101514.72;;;7.61;100.00
61018;BME280;48171;51.550;5.434;2023-04-07T02:42:38;101516.44;;;7.61;100.00
61018;BME280;48171;51.550;5.434;2023-04-07T02:45:04;101521.69;;;7.61;100.00
61018;BME280;48171;51.550;5.434;2023-04-07T02:47:30;101513.81;;;7.61;100.00
61018;BME280;48171;51.550;5.434;2023-04-07T02:49:55;101507.66;;;7.59;100.00
61018;BME280;48171;51.550;5.434;2023-04-07T02:52:21;101506.81;;;7.60;100.00
61018;BME280;48171;51.550;5.434;2023-04-07T02:54:46;101517.34;;;7.63;100.00
61018;BME280;48171;51.550;5.434;2023-04-07T02:57:11;101508.59;;;7.63;100.00
61018;BME280;48171;51.550;5.434;2023-04-07T02:59:38;101518.25;;;7.65;100.00
61018;BME280;48171;51.550;5.434;2023-04-07T03:02:03;101506.00;;;7.64;100.00
61018;BME280;48171;51.550;5.434;2023-04-07T03:04:28;101513.03;;;7.67;100.00
61018;BME280;48171;51.550;5.434;2023-04-07T03:06:53;101509.47;;;7.63;100.00
61018;BME280;48171;51.550;5.434;2023-04-07T03:09:20;101510.38;;;7.65;100.00
61018;BME280;48171;51.550;5.434;2023-04-07T03:11:46;101513.00;;;7.64;100.00
61018;BME280;48171;51.550;5.434;2023-04-07T03:14:11;101513.00;;;7.64;100.00
61018;BME280;48171;51.550;5.434;2023-04-07T03:16:36;101513.91;;;7.66;100.00
61018;BME280;48171;51.550;5.434;2023-04-07T03:19:01;101515.63;;;7.64;100.00
61018;BME280;48171;51.550;5.434;2023-04-07T03:21:27;101512.97;;;7.62;100.00
61018;BME280;48171;51.550;5.434;2023-04-07T03:23:53;101516.47;;;7.63;100.00
61018;BME280;48171;51.550;5.434;2023-04-07T03:26:18;101513.81;;;7.59;100.00
61018;BME280;48171;51.550;5.434;2023-04-07T03:28:43;101514.69;;;7.60;100.00
61018;BME280;48171;51.550;5.434;2023-04-07T03:31:08;101514.72;;;7.61;100.00
61018;BME280;48171;51.550;5.434;2023-04-07T03:33:34;101505.03;;;7.60;100.00
61018;BME280;48171;51.550;5.434;2023-04-07T03:35:59;101515.63;;;7.64;100.00
61018;BME280;48171;51.550;5.434;2023-04-07T03:38:25;101519.97;;;7.63;100.00
61018;BME280;48171;51.550;5.434;2023-04-07T03:40:50;101519.97;;;7.63;100.00
61018;BME280;48171;51.550;5.434;2023-04-07T03:43:15;101514.66;;;7.58;100.00
61018;BME280;48171;51.550;5.434;2023-04-07T03:45:41;101524.34;;;7.61;100.00
61018;BME280;48171;51.550;5.434;2023-04-07T03:48:07;101518.16;;;7.59;100.00
61018;BME280;48171;51.550;5.434;2023-04-07T03:50:36;101526.97;;;7.59;100.00
61018;BME280;48171;51.550;5.434;2023-04-07T03:53:02;101531.34;;;7.60;100.00
61018;BME280;48171;51.550;5.434;2023-04-07T03:55:28;101517.25;;;7.55;100.00
61018;BME280;48171;51.550;5.434;2023-04-07T03:57:53;101521.63;;;7.56;100.00
61018;BME280;48171;51.550;5.434;2023-04-07T04:00:18;101528.69;;;7.57;100.00
61018;BME280;48171;51.550;5.434;2023-04-07T04:02:44;101528.69;;;7.57;100.00
61018;BME280;48171;51.550;5.434;2023-04-07T04:05:09;101532.16;;;7.56;100.00
61018;BME280;48171;51.550;5.434;2023-04-07T04:07:34;101523.34;;;7.54;100.00
61018;BME280;48171;51.550;5.434;2023-04-07T04:10:00;101526.78;;;7.50;100.00
61018;BME280;48171;51.550;5.434;2023-04-07T04:12:25;101515.38;;;7.48;100.00
61018;BME280;48171;51.550;5.434;2023-04-07T04:14:51;101521.50;;;7.49;100.00
61018;BME280;48171;51.550;5.434;2023-04-07T04:17:16;101524.09;;;7.46;100.00
61018;BME280;48171;51.550;5.434;2023-04-07T04:19:41;101521.47;;;7.46;100.00
61018;BME280;48171;51.550;5.434;2023-04-07T04:22:07;101519.66;;;7.43;100.00
61018;BME280;48171;51.550;5.434;2023-04-07T04:24:32;101526.69;;;7.44;100.00
61018;BME280;48171;51.550;5.434;2023-04-07T04:26:57;101522.28;;;7.43;100.00
61018;BME280;48171;51.550;5.434;2023-04-07T04:29:23;101531.06;;;7.44;100.00
61018;BME280;48171;51.550;5.434;2023-04-07T04:31:48;101518.75;;;7.41;100.00
61018;BME280;48171;51.550;5.434;2023-04-07T04:34:13;101525.75;;;7.40;100.00
61018;BME280;48171;51.550;5.434;2023-04-07T04:36:38;101531.88;;;7.39;100.00
61018;BME280;48171;51.550;5.434;2023-04-07T04:39:05;101532.69;;;7.35;100.00
61018;BME280;48171;51.550;5.434;2023-04-07T04:41:30;101526.53;;;7.33;100.00
61018;BME280;48171;51.550;5.434;2023-04-07T04:43:56;101535.22;;;7.31;100.00
61018;BME280;48171;51.550;5.434;2023-04-07T04:46:21;101535.19;;;7.28;100.00
61018;BME280;48171;51.550;5.434;2023-04-07T04:48:46;101543.00;;;7.25;100.00
61018;BME280;48171;51.550;5.434;2023-04-07T04:51:12;101542.09;;;7.22;100.00
61018;BME280;48171;51.550;5.434;2023-04-07T04:53:37;101534.09;;;7.16;100.00
61018;BME280;48171;51.550;5.434;2023-04-07T04:56:02;101555.13;;;7.16;100.00
61018;BME280;48171;51.550;5.434;2023-04-07T04:58:28;101556.00;;;7.15;100.00
61018;BME280;48171;51.550;5.434;2023-04-07T05:00:53;101558.63;;;7.15;100.00
61018;BME280;48171;51.550;5.434;2023-04-07T05:03:23;101559.56;;;7.20;100.00
61018;BME280;48171;51.550;5.434;2023-04-07T05:05:50;101564.78;;;7.17;100.00
61018;BME280;48171;51.550;5.434;2023-04-07T05:08:15;101562.13;;;7.16;100.00
61018;BME280;48171;51.550;5.434;2023-04-07T05:10:41;101570.09;;;7.20;100.00
61018;BME280;48171;51.550;5.434;2023-04-07T05:13:06;101571.00;;;7.22;100.00
61018;BME280;48171;51.550;5.434;2023-04-07T05:15:31;101568.34;;;7.21;100.00
61018;BME280;48171;51.550;5.434;2023-04-07T05:17:56;101571.00;;;7.22;100.00
61018;BME280;48171;51.550;5.434;2023-04-07T05:20:22;101576.25;;;7.22;100.00
61018;BME280;48171;51.550;5.434;2023-04-07T05:22:47;101577.16;;;7.25;100.00
61018;BME280;48171;51.550;5.434;2023-04-07T05:25:12;101576.31;;;7.26;100.00
61018;BME280;48171;51.550;5.434;2023-04-07T05:27:38;101580.69;;;7.25;100.00
61018;BME280;48171;51.550;5.434;2023-04-07T05:30:03;101583.34;;;7.25;100.00
61018;BME280;48171;51.550;5.434;2023-04-07T05:32:29;101581.63;;;7.27;100.00
61018;BME280;48171;51.550;5.434;2023-04-07T05:34:54;101586.03;;;7.30;100.00
61018;BME280;48171;51.550;5.434;2023-04-07T05:37:20;101578.16;;;7.30;100.00
61018;BME280;48171;51.550;5.434;2023-04-07T05:39:45;101577.16;;;7.23;100.00
61018;BME280;48171;51.550;5.434;2023-04-07T05:42:11;101586.91;;;7.30;100.00
61018;BME280;48171;51.550;5.434;2023-04-07T05:44:36;101589.63;;;7.33;100.00
61018;BME280;48171;51.550;5.434;2023-04-07T05:47:01;101581.69;;;7.32;100.00
61018;BME280;48171;51.550;5.434;2023-04-07T05:49:30;101586.94;;;7.32;100.00
61018;BME280;48171;51.550;5.434;2023-04-07T05:51:55;101584.28;;;7.30;100.00
61018;BME280;48171;51.550;5.434;2023-04-07T05:54:21;101583.41;;;7.30;100.00
61018;BME280;48171;51.550;5.434;2023-04-07T05:56:46;101592.22;;;7.32;100.00
61018;BME280;48171;51.550;5.434;2023-04-07T05:59:11;101593.09;;;7.32;100.00
61018;BME280;48171;51.550;5.434;2023-04-07T06:01:36;101591.38;;;7.34;100.00
61018;BME280;48171;51.550;5.434;2023-04-07T06:04:02;101586.16;;;7.36;100.00
61018;BME280;48171;51.550;5.434;2023-04-07T06:06:28;101594.06;;;7.39;100.00
61018;BME280;48171;51.550;5.434;2023-04-07T06:08:53;101603.78;;;7.43;100.00
61018;BME280;48171;51.550;5.434;2023-04-07T06:11:18;101602.94;;;7.44;100.00
61018;BME280;48171;51.550;5.434;2023-04-07T06:13:44;101607.41;;;7.48;100.00
61018;BME280;48171;51.550;5.434;2023-04-07T06:16:10;101606.53;;;7.49;100.00
61018;BME280;48171;51.550;5.434;2023-04-07T06:18:35;101605.66;;;7.49;100.00
61018;BME280;48171;51.550;5.434;2023-04-07T06:21:01;101610.06;;;7.50;100.00
61018;BME280;48171;51.550;5.434;2023-04-07T06:23:26;101611.78;;;7.49;100.00
61018;BME280;48171;51.550;5.434;2023-04-07T06:25:51;101610.88;;;7.47;100.00
61018;BME280;48171;51.550;5.434;2023-04-07T06:28:17;101616.16;;;7.49;100.00
61018;BME280;48171;51.550;5.434;2023-04-07T06:30:43;101617.88;;;7.47;100.00
61018;BME280;48171;51.550;5.434;2023-04-07T06:33:08;101618.81;;;7.50;100.00
61018;BME280;48171;51.550;5.434;2023-04-07T06:35:33;101614.50;;;7.54;100.00
61018;BME280;48171;51.550;5.434;2023-04-07T06:37:58;101625.97;;;7.59;100.00
61018;BME280;48171;51.550;5.434;2023-04-07T06:40:24;101625.97;;;7.59;100.00
61018;BME280;48171;51.550;5.434;2023-04-07T06:42:49;101625.19;;;7.61;100.00
61018;BME280;48171;51.550;5.434;2023-04-07T06:45:15;101618.13;;;7.60;100.00
61018;BME280;48171;51.550;5.434;2023-04-07T06:47:41;101634.03;;;7.67;100.00
61018;BME280;48171;51.550;5.434;2023-04-07T06:50:06;101635.81;;;7.68;100.00
61018;BME280;48171;51.550;5.434;2023-04-07T06:52:32;101630.63;;;7.72;100.00
61018;BME280;48171;51.550;5.434;2023-04-07T06:54:57;101637.66;;;7.75;100.00
61018;BME280;48171;51.550;5.434;2023-04-07T06:57:23;101641.22;;;7.77;100.00
61018;BME280;48171;51.550;5.434;2023-04-07T06:59:48;101637.81;;;7.82;100.00
61018;BME280;48171;51.550;5.434;2023-04-07T07:02:14;101637.03;;;7.88;100.00
61018;BME280;48171;51.550;5.434;2023-04-07T07:04:39;101648.50;;;7.93;100.00
61018;BME280;48171;51.550;5.434;2023-04-07T07:07:04;101657.38;;;7.98;100.00
61018;BME280;48171;51.550;5.434;2023-04-07T07:09:30;101652.13;;;8.01;100.00
61018;BME280;48171;51.550;5.434;2023-04-07T07:11:55;101650.41;;;8.04;100.00
61018;BME280;48171;51.550;5.434;2023-04-07T07:14:21;101654.06;;;8.10;100.00
61018;BME280;48171;51.550;5.434;2023-04-07T07:16:46;101649.66;;;8.11;100.00
61018;BME280;48171;51.550;5.434;2023-04-07T07:19:12;101655.00;;;8.15;100.00
61018;BME280;48171;51.550;5.434;2023-04-07T07:21:38;101655.88;;;8.14;100.00
61018;BME280;48171;51.550;5.434;2023-04-07T07:24:03;101660.34;;;8.20;100.00
61018;BME280;48171;51.550;5.434;2023-04-07T07:26:29;101655.97;;;8.20;100.00
61018;BME280;48171;51.550;5.434;2023-04-07T07:28:54;101660.47;;;8.28;100.00
61018;BME280;48171;51.550;5.434;2023-04-07T07:31:20;101659.59;;;8.29;100.00
61018;BME280;48171;51.550;5.434;2023-04-07T07:33:45;101664.00;;;8.30;100.00
61018;BME280;48171;51.550;5.434;2023-04-07T07:36:12;101669.31;;;8.33;100.00
61018;BME280;48171;51.550;5.434;2023-04-07T07:38:38;101662.28;;;8.30;100.00
61018;BME280;48171;51.550;5.434;2023-04-07T07:41:05;101676.34;;;8.32;100.00
61018;BME280;48171;51.550;5.434;2023-04-07T07:43:31;101668.41;;;8.31;100.00
61018;BME280;48171;51.550;5.434;2023-04-07T07:45:56;101664.88;;;8.29;100.00
61018;BME280;48171;51.550;5.434;2023-04-07T07:48:21;101682.56;;;8.37;100.00
61018;BME280;48171;51.550;5.434;2023-04-07T07:50:47;101677.31;;;8.39;100.00
61018;BME280;48171;51.550;5.434;2023-04-07T07:53:13;101681.72;;;8.38;100.00
61018;BME280;48171;51.550;5.434;2023-04-07T07:55:38;101690.50;;;8.39;100.00
61018;BME280;48171;51.550;5.434;2023-04-07T07:58:03;101679.97;;;8.40;100.00
61018;BME280;48171;51.550;5.434;2023-04-07T08:00:29;101688.00;;;8.48;100.00
61018;BME280;48171;51.550;5.434;2023-04-07T08:02:54;101682.78;;;8.50;100.00
61018;BME280;48171;51.550;5.434;2023-04-07T08:05:20;101692.56;;;8.57;100.00
61018;BME280;48171;51.550;5.434;2023-04-07T08:07:45;101689.91;;;8.57;100.00
61018;BME280;48171;51.550;5.434;2023-04-07T08:10:11;101702.31;;;8.63;100.00
61018;BME280;48171;51.550;5.434;2023-04-07T08:12:36;101704.13;;;8.67;100.00
61018;BME280;48171;51.550;5.434;2023-04-07T08:15:02;101696.22;;;8.68;100.00
61018;BME280;48171;51.550;5.434;2023-04-07T08:17:27;101706.81;;;8.71;100.00
61018;BME280;48171;51.550;5.434;2023-04-07T08:19:53;101712.09;;;8.74;100.00
61018;BME280;48171;51.550;5.434;2023-04-07T08:22:18;101715.69;;;8.78;100.00
61018;BME280;48171;51.550;5.434;2023-04-07T08:24:45;101709.59;;;8.82;100.00
61018;BME280;48171;51.550;5.434;2023-04-07T08:27:11;101708.66;;;8.77;100.00
61018;BME280;48171;51.550;5.434;2023-04-07T08:29:36;101715.66;;;8.76;100.00
61018;BME280;48171;51.550;5.434;2023-04-07T08:32:02;101707.72;;;8.73;100.00
61018;BME280;48171;51.550;5.434;2023-04-07T08:34:27;101716.47;;;8.72;100.00
61018;BME280;48171;51.550;5.434;2023-04-07T08:36:52;101728.63;;;8.64;100.00
61018;BME280;48171;51.550;5.434;2023-04-07T08:39:18;101723.31;;;8.59;100.00
61018;BME280;48171;51.550;5.434;2023-04-07T08:41:43;101724.13;;;8.55;100.00
61018;BME280;48171;51.550;5.434;2023-04-07T08:44:11;101727.66;;;8.57;100.00
61018;BME280;48171;51.550;5.434;2023-04-07T08:46:38;101728.56;;;8.56;100.00
61018;BME280;48171;51.550;5.434;2023-04-07T08:49:08;101725.09;;;8.62;100.00
61018;BME280;48171;51.550;5.434;2023-04-07T08:51:36;101733.16;;;8.71;100.00
61018;BME280;48171;51.550;5.434;2023-04-07T08:54:08;101733.25;;;8.77;100.00
61018;BME280;48171;51.550;5.434;2023-04-07T08:56:38;101736.91;;;8.87;100.00
61018;BME280;48171;51.550;5.434;2023-04-07T08:59:09;101745.84;;;9.00;100.00
61018;BME280;48171;51.550;5.434;2023-04-07T09:01:35;101739.78;;;9.06;100.00
61018;BME280;48171;51.550;5.434;2023-04-07T09:04:02;101745.16;;;9.12;100.00
61018;BME280;48171;51.550;5.434;2023-04-07T09:06:32;101747.00;;;9.19;100.00
61018;BME280;48171;51.550;5.434;2023-04-07T09:08:58;101743.63;;;9.29;100.00
61018;BME280;48171;51.550;5.434;2023-04-07T09:11:25;101744.53;;;9.31;100.00
61018;BME280;48171;51.550;5.434;2023-04-07T09:13:51;101741.94;;;9.36;100.00
61018;BME280;48171;51.550;5.434;2023-04-07T09:16:16;101741.06;;;9.37;100.00
61018;BME280;48171;51.550;5.434;2023-04-07T09:18:42;101746.34;;;9.35;99.85
61018;BME280;48171;51.550;5.434;2023-04-07T09:21:07;101743.63;;;9.31;100.00
61018;BME280;48171;51.550;5.434;2023-04-07T09:23:38;101748.81;;;9.25;99.18
61018;BME280;48171;51.550;5.434;2023-04-07T09:26:24;101746.16;;;9.21;100.00
61018;BME280;48171;51.550;5.434;2023-04-07T09:28:54;101750.56;;;9.21;99.53
61018;BME280;48171;51.550;5.434;2023-04-07T09:31:20;101751.44;;;9.21;100.00
61018;BME280;48171;51.550;5.434;2023-04-07T09:33:48;101760.19;;;9.20;99.24
61018;BME280;48171;51.550;5.434;2023-04-07T09:36:13;101757.50;;;9.16;99.25
61018;BME280;48171;51.550;5.434;2023-04-07T09:38:39;101759.22;;;9.14;100.00
61018;BME280;48171;51.550;5.434;2023-04-07T09:41:11;101760.16;;;9.16;99.13
61018;BME280;48171;51.550;5.434;2023-04-07T09:43:39;101750.47;;;9.16;99.72
61018;BME280;48171;51.550;5.434;2023-04-07T09:46:18;101752.31;;;9.22;99.01
61018;BME280;48171;51.550;5.434;2023-04-07T09:48:45;101758.53;;;9.27;98.31
61018;BME280;48171;51.550;5.434;2023-04-07T09:51:15;101753.31;;;9.32;99.29
61018;BME280;48171;51.550;5.434;2023-04-07T09:53:41;101757.94;;;9.50;99.91
61018;BME280;48171;51.550;5.434;2023-04-07T09:56:08;101753.53;;;9.49;98.71
61018;BME280;48171;51.550;5.434;2023-04-07T09:58:34;101750.78;;;9.41;98.65
61018;BME280;48171;51.550;5.434;2023-04-07T10:01:03;101757.84;;;9.42;99.58
61018;BME280;48171;51.550;5.434;2023-04-07T10:03:28;101763.03;;;9.34;98.75
61018;BME280;48171;51.550;5.434;2023-04-07T10:05:53;101762.03;;;9.26;98.57
61018;BME280;48171;51.550;5.434;2023-04-07T10:08:19;101766.28;;;9.16;99.18
61018;BME280;48171;51.550;5.434;2023-04-07T10:10:45;101772.28;;;9.03;98.67
61018;BME280;48171;51.550;5.434;2023-04-07T10:13:11;101771.28;;;8.95;99.53
61018;BME280;48171;51.550;5.434;2023-04-07T10:15:37;101772.19;;;8.98;100.00
61018;BME280;48171;51.550;5.434;2023-04-07T10:18:04;101783.63;;;8.97;99.55
61018;BME280;48171;51.550;5.434;2023-04-07T10:20:31;101783.56;;;8.93;99.33
61018;BME280;48171;51.550;5.434;2023-04-07T10:23:03;101777.34;;;8.89;100.00
61018;BME280;48171;51.550;5.434;2023-04-07T10:25:31;101787.09;;;8.95;99.83
61018;BME280;48171;51.550;5.434;2023-04-07T10:28:03;101783.63;;;8.97;100.00
61018;BME280;48171;51.550;5.434;2023-04-07T10:30:31;101797.72;;;9.02;100.00
61018;BME280;48171;51.550;5.434;2023-04-07T10:32:58;101790.75;;;9.06;100.00
61018;BME280;48171;51.550;5.434;2023-04-07T10:35:23;101799.66;;;9.14;100.00
61018;BME280;48171;51.550;5.434;2023-04-07T10:40:35;101796.47;;;9.38;99.23
61018;BME280;48171;51.550;5.434;2023-04-07T10:43:01;101790.44;;;9.46;98.84
61018;BME280;48171;51.550;5.434;2023-04-07T10:48:12;101793.16;;;9.55;97.11
61018;BME280;48171;51.550;5.434;2023-04-07T10:50:38;101801.09;;;9.55;96.79
61018;BME280;48171;51.550;5.434;2023-04-07T10:53:12;101795.81;;;9.55;97.18
61018;BME280;48171;51.550;5.434;2023-04-07T10:55:38;101790.50;;;9.52;97.06
61018;BME280;48171;51.550;5.434;2023-04-07T11:03:31;101799.31;;;9.54;97.79
61018;BME280;48171;51.550;5.434;2023-04-07T11:06:11;101804.63;;;9.55;97.15
61018;BME280;48171;51.550;5.434;2023-04-07T11:08:41;101811.63;;;9.53;93.32
61018;BME280;48171;51.550;5.434;2023-04-07T11:11:08;101808.91;;;9.49;92.98
61018;BME280;48171;51.550;5.434;2023-04-07T11:13:43;101803.72;;;9.53;95.13
61018;BME280;48171;51.550;5.434;2023-04-07T11:16:10;101808.22;;;9.62;94.29
61018;BME280;48171;51.550;5.434;2023-04-07T11:18:37;101810.84;;;9.62;91.82
61018;BME280;48171;51.550;5.434;2023-04-07T11:21:05;101809.06;;;9.59;92.39
61018;BME280;48171;51.550;5.434;2023-04-07T11:23:41;101816.25;;;9.70;94.03
61018;BME280;48171;51.550;5.434;2023-04-07T11:26:08;101811.09;;;9.82;93.14
61018;BME280;48171;51.550;5.434;2023-04-07T11:28:44;101815.59;;;9.91;92.21
61018;BME280;48171;51.550;5.434;2023-04-07T11:31:10;101812.13;;;9.95;93.12
61018;BME280;48171;51.550;5.434;2023-04-07T11:33:35;101807.75;;;9.97;91.58
61018;BME280;48171;51.550;5.434;2023-04-07T11:36:05;101811.31;;;10.00;91.85
61018;BME280;48171;51.550;5.434;2023-04-07T11:38:35;101815.69;;;10.01;91.93
61018;BME280;48171;51.550;5.434;2023-04-07T11:41:12;101815.72;;;10.03;91.14
61018;BME280;48171;51.550;5.434;2023-04-07T11:43:38;101814.88;;;10.06;92.41
61018;BME280;48171;51.550;5.434;2023-04-07T11:46:14;101820.25;;;10.15;89.29
61018;BME280;48171;51.550;5.434;2023-04-07T11:48:41;101813.28;;;10.21;91.20
61018;BME280;48171;51.550;5.434;2023-04-07T11:51:21;101813.34;;;10.29;91.22
61018;BME280;48171;51.550;5.434;2023-04-07T11:53:54;101810.81;;;10.37;93.35
61018;BME280;48171;51.550;5.434;2023-04-07T11:56:19;101813.53;;;10.43;91.76
61018;BME280;48171;51.550;5.434;2023-04-07T11:58:50;101820.53;;;10.39;91.87
61018;BME280;48171;51.550;5.434;2023-04-07T12:01:15;101829.28;;;10.35;90.61
61018;BME280;48171;51.550;5.434;2023-04-07T12:04:01;101833.53;;;10.21;90.98
61018;BME280;48171;51.550;5.434;2023-04-07T12:06:31;101837.81;;;10.08;89.93
61018;BME280;48171;51.550;5.434;2023-04-07T12:09:02;101841.28;;;10.06;92.34
61018;BME280;48171;51.550;5.434;2023-04-07T12:11:27;101836.94;;;10.11;91.05
61018;BME280;48171;51.550;5.434;2023-04-07T12:13:53;101837.00;;;10.17;92.43
61018;BME280;48171;51.550;5.434;2023-04-07T12:16:19;101837.09;;;10.28;91.51
61018;BME280;48171;51.550;5.434;2023-04-07T12:18:45;101837.28;;;10.38;88.40
61018;BME280;48171;51.550;5.434;2023-04-07T12:21:10;101834.66;;;10.46;91.28
61018;BME280;48171;51.550;5.434;2023-04-07T12:23:35;101841.78;;;10.50;89.54
61018;BME280;48171;51.550;5.434;2023-04-07T12:26:00;101832.94;;;10.47;90.05
61018;BME280;48171;51.550;5.434;2023-04-07T12:28:26;101838.16;;;10.40;89.17
61018;BME280;48171;51.550;5.434;2023-04-07T12:30:52;101847.69;;;10.29;88.90
61018;BME280;48171;51.550;5.434;2023-04-07T12:33:17;101849.41;;;10.24;89.78
61018;BME280;48171;51.550;5.434;2023-04-07T12:35:42;101848.53;;;10.25;89.88
61018;BME280;48171;51.550;5.434;2023-04-07T12:38:08;101857.34;;;10.24;88.99
61018;BME280;48171;51.550;5.434;2023-04-07T12:40:33;101851.16;;;10.22;89.83
61018;BME280;48171;51.550;5.434;2023-04-07T12:42:59;101859.97;;;10.23;90.10
61018;BME280;48171;51.550;5.434;2023-04-07T12:45:25;101857.22;;;10.15;89.71
61018;BME280;48171;51.550;5.434;2023-04-07T12:47:50;101866.88;;;10.11;89.88
61018;BME280;48171;51.550;5.434;2023-04-07T12:50:16;101864.97;;;9.99;90.03
61018;BME280;48171;51.550;5.434;2023-04-07T12:52:41;101871.06;;;9.92;91.19
61018;BME280;48171;51.550;5.434;2023-04-07T12:55:07;101870.94;;;9.85;90.99
61018;BME280;48171;51.550;5.434;2023-04-07T12:57:32;101877.09;;;9.82;92.15
61018;BME280;48171;51.550;5.434;2023-04-07T12:59:58;101864.78;;;9.84;92.44
61018;BME280;48171;51.550;5.434;2023-04-07T13:02:23;101876.22;;;9.85;91.97
61018;BME280;48171;51.550;5.434;2023-04-07T13:04:48;101879.69;;;9.80;91.76